Time;durP1;ratioP1;P1;durP2;ratioP2;P2;SDS_P1;SDS_P2;PMS_P1;PMS_P2;Temp;Humidity;BMP_temperature;BMP_pressure;BME280_temperature;BME280_humidity;BME280_pressure;Samples;Min_cycle;Max_cycle;Signal;HPM_P1;HPM_P2
2023/07/06 00:01:01;;;;;;;26.10;13.20;;;;;;;;;;5045286;28;20025;-72
2023/07/06 00:03:27;;;;;;;34.05;13.68;;;;;;;;;;5048011;28;20041;-72
2023/07/06 00:05:54;;;;;;;27.75;12.68;;;;;;;;;;5046829;28;20036;-71
2023/07/06 00:08:20;;;;;;;27.50;12.27;;;;;;;;;;5048892;28;20036;-71
2023/07/06 00:10:49;;;;;;;34.47;12.40;;;;;;;;;;5028446;28;20258;-71
2023/07/06 00:13:15;;;;;;;26.65;11.70;;;;;;;;;;5048128;28;20060;-71
2023/07/06 00:15:42;;;;;;;26.48;11.50;;;;;;;;;;5028310;28;20033;-71
2023/07/06 00:18:09;;;;;;;32.33;11.95;;;;;;;;;;5031488;28;20033;-71
2023/07/06 00:20:37;;;;;;;28.08;12.02;;;;;;;;;;5027479;28;20112;-71
2023/07/06 00:23:08;;;;;;;40.03;11.05;;;;;;;;;;5034017;28;20048;-71
2023/07/06 00:25:36;;;;;;;30.40;10.35;;;;;;;;;;5036551;28;20130;-72
2023/07/06 00:28:04;;;;;;;25.95;11.07;;;;;;;;;;5039274;28;20060;-70
2023/07/06 00:31:21;;;;;;;29.35;10.38;;;;;;;;;;5035535;28;20479;-71
2023/07/06 00:33:18;;;;;;;32.63;11.32;;;;;;;;;;5026424;28;20065;-71
2023/07/06 00:35:47;;;;;;;38.38;11.38;;;;;;;;;;5044239;28;20025;-72
2023/07/06 00:38:21;;;;;;;29.92;11.02;;;;;;;;;;5033837;28;20036;-70
2023/07/06 00:40:49;;;;;;;35.30;11.52;;;;;;;;;;5042583;28;20112;-70
2023/07/06 00:43:18;;;;;;;29.98;12.55;;;;;;;;;;5049978;28;20033;-69
2023/07/06 00:45:45;;;;;;;31.98;12.57;;;;;;;;;;5041642;28;20025;-71
2023/07/06 00:48:18;;;;;;;28.30;12.40;;;;;;;;;;5052114;28;20099;-71
2023/07/06 00:50:44;;;;;;;30.85;12.68;;;;;;;;;;5049019;28;20078;-72
2023/07/06 00:53:13;;;;;;;28.45;11.68;;;;;;;;;;5056526;28;20124;-71
2023/07/06 00:55:42;;;;;;;28.15;11.55;;;;;;;;;;5030947;28;20029;-71
2023/07/06 00:58:15;;;;;;;29.00;11.90;;;;;;;;;;5048471;28;20105;-72
2023/07/06 01:00:43;;;;;;;26.77;11.50;;;;;;;;;;5048102;28;20036;-72
2023/07/06 01:03:10;;;;;;;39.67;12.13;;;;;;;;;;5033877;28;20525;-72
2023/07/06 01:05:38;;;;;;;28.20;10.60;;;;;;;;;;5048696;28;20043;-71
2023/07/06 01:08:07;;;;;;;28.00;10.50;;;;;;;;;;5035778;28;20056;-71
2023/07/06 01:10:34;;;;;;;33.17;11.35;;;;;;;;;;5049999;28;20036;-70
2023/07/06 01:13:01;;;;;;;29.27;11.00;;;;;;;;;;5031635;28;20116;-70
2023/07/06 01:15:32;;;;;;;37.13;9.90;;;;;;;;;;5049553;28;20032;-71
2023/07/06 01:17:58;;;;;;;;;;;;;;;;;;5049788;28;20028;-70
2023/07/06 01:20:28;;;;;;;24.15;9.40;;;;;;;;;;5030947;28;19919;-71
2023/07/06 01:22:54;;;;;;;26.23;9.25;;;;;;;;;;5041918;28;20505;-71
2023/07/06 01:25:39;;;;;;;24.88;7.93;;;;;;;;;;5047205;28;20139;-71
2023/07/06 01:28:09;;;;;;;24.60;8.15;;;;;;;;;;5049993;28;20032;-71
2023/07/06 01:30:51;;;;;;;23.55;7.82;;;;;;;;;;5043940;28;20106;-70
2023/07/06 01:33:26;;;;;;;24.33;7.68;;;;;;;;;;5037189;28;20032;-70
2023/07/06 01:36:03;;;;;;;24.02;8.20;;;;;;;;;;5044073;28;20060;-71
2023/07/06 01:38:29;;;;;;;16.50;7.65;;;;;;;;;;5031093;28;20350;-70
2023/07/06 01:40:57;;;;;;;25.20;7.40;;;;;;;;;;5014850;28;20078;-71
2023/07/06 01:43:25;;;;;;;18.92;7.13;;;;;;;;;;5048778;28;20071;-71
2023/07/06 01:45:53;;;;;;;21.90;6.75;;;;;;;;;;5029787;28;20495;-71
2023/07/06 01:48:20;;;;;;;22.08;7.35;;;;;;;;;;5032145;28;20120;-71
2023/07/06 01:51:13;;;;;;;16.52;6.60;;;;;;;;;;5044926;28;20022;-70
2023/07/06 01:53:58;;;;;;;23.13;6.82;;;;;;;;;;5043000;28;20029;-69
2023/07/06 01:56:38;;;;;;;19.40;6.78;;;;;;;;;;5047654;28;20059;-70
2023/07/06 01:59:08;;;;;;;22.88;6.95;;;;;;;;;;5033428;28;20033;-71
2023/07/06 02:01:43;;;;;;;21.73;6.18;;;;;;;;;;5032394;28;20029;-71
2023/07/06 02:04:11;;;;;;;13.85;6.10;;;;;;;;;;5051546;28;20037;-70
2023/07/06 02:06:38;;;;;;;22.00;6.60;;;;;;;;;;5032195;28;20102;-70
2023/07/06 02:09:04;;;;;;;16.85;5.90;;;;;;;;;;5051106;28;20029;-70
2023/07/06 02:11:33;;;;;;;26.13;7.00;;;;;;;;;;5047188;28;20149;-70
2023/07/06 02:13:59;;;;;;;20.75;6.85;;;;;;;;;;5032081;28;20183;-70
2023/07/06 02:16:26;;;;;;;19.42;6.97;;;;;;;;;;5045913;28;20051;-70
2023/07/06 02:18:53;;;;;;;21.42;6.82;;;;;;;;;;5049181;28;20505;-70
2023/07/06 02:21:22;;;;;;;21.73;7.18;;;;;;;;;;5045520;28;20252;-71
2023/07/06 02:23:48;;;;;;;17.30;6.53;;;;;;;;;;5031398;28;20094;-70
2023/07/06 02:26:14;;;;;;;24.30;8.25;;;;;;;;;;5048062;28;20124;-70
2023/07/06 02:28:42;;;;;;;11.75;6.15;;;;;;;;;;5049410;28;20037;-70
2023/07/06 02:31:09;;;;;;;15.15;6.50;;;;;;;;;;5029928;28;20370;-70
2023/07/06 02:33:35;;;;;;;24.45;7.78;;;;;;;;;;5049702;28;20112;-71
2023/07/06 02:36:02;;;;;;;16.98;7.10;;;;;;;;;;5024701;28;20078;-71
2023/07/06 02:38:29;;;;;;;16.25;6.15;;;;;;;;;;5049160;28;20033;-71
2023/07/06 02:40:57;;;;;;;15.63;7.38;;;;;;;;;;5029577;28;20044;-70
2023/07/06 02:43:25;;;;;;;21.45;7.25;;;;;;;;;;5031395;28;20544;-71
2023/07/06 02:45:51;;;;;;;23.08;7.15;;;;;;;;;;5028158;28;20037;-72
2023/07/06 02:48:17;;;;;;;24.75;7.30;;;;;;;;;;5049643;28;20075;-71
2023/07/06 02:50:48;;;;;;;17.45;6.82;;;;;;;;;;5030170;28;20025;-70
2023/07/06 02:53:15;;;;;;;17.17;7.00;;;;;;;;;;5048014;28;20064;-72
2023/07/06 02:55:41;;;;;;;19.88;7.22;;;;;;;;;;5012196;28;20033;-71
2023/07/06 02:58:07;;;;;;;25.58;7.10;;;;;;;;;;5031751;28;20025;-71
2023/07/06 03:00:33;;;;;;;23.42;7.72;;;;;;;;;;5041319;28;20037;-71
2023/07/06 03:02:59;;;;;;;27.58;7.10;;;;;;;;;;5031153;28;20040;-70
2023/07/06 03:05:25;;;;;;;22.77;7.13;;;;;;;;;;5046509;28;20090;-71
2023/07/06 03:07:52;;;;;;;20.33;7.32;;;;;;;;;;5048420;28;20063;-71
2023/07/06 03:10:25;;;;;;;25.58;6.88;;;;;;;;;;5047092;28;20231;-69
2023/07/06 03:12:51;;;;;;;28.35;8.00;;;;;;;;;;5048521;28;20033;-71
2023/07/06 03:15:17;;;;;;;17.20;8.55;;;;;;;;;;5047611;28;20028;-72
2023/07/06 03:17:48;;;;;;;20.00;8.45;;;;;;;;;;5047092;28;20037;-70
2023/07/06 03:20:19;;;;;;;26.27;7.95;;;;;;;;;;5047611;28;20033;-70
2023/07/06 03:22:46;;;;;;;26.65;8.15;;;;;;;;;;5048624;28;20758;-71
2023/07/06 03:25:16;;;;;;;32.33;8.35;;;;;;;;;;5047596;28;20163;-70
2023/07/06 03:27:43;;;;;;;26.55;8.50;;;;;;;;;;5047697;28;20037;-70
2023/07/06 03:30:10;;;;;;;21.92;7.47;;;;;;;;;;5038699;28;20037;-70
2023/07/06 03:32:39;;;;;;;21.00;7.45;;;;;;;;;;5031652;28;20159;-70
2023/07/06 03:35:07;;;;;;;27.42;8.68;;;;;;;;;;5030303;28;20186;-71
2023/07/06 03:37:33;;;;;;;26.23;8.77;;;;;;;;;;5029187;28;20074;-72
2023/07/06 03:39:59;;;;;;;22.02;7.75;;;;;;;;;;5012060;28;20017;-70
2023/07/06 03:42:25;;;;;;;23.48;7.10;;;;;;;;;;5049692;28;20029;-72
2023/07/06 03:44:55;;;;;;;18.85;8.00;;;;;;;;;;5049907;28;20037;-71
2023/07/06 03:47:23;;;;;;;24.08;8.52;;;;;;;;;;5051151;28;20068;-70
2023/07/06 03:49:50;;;;;;;26.70;9.30;;;;;;;;;;5049547;28;20371;-71
2023/07/06 03:52:17;;;;;;;24.05;7.88;;;;;;;;;;5050351;28;20090;-70
2023/07/06 03:54:44;;;;;;;22.63;7.70;;;;;;;;;;5032630;28;20029;-71
2023/07/06 03:57:11;;;;;;;28.35;7.70;;;;;;;;;;5037257;28;20478;-71
2023/07/06 03:59:38;;;;;;;28.52;7.22;;;;;;;;;;5030739;28;20044;-70
2023/07/06 04:02:09;;;;;;;25.50;7.97;;;;;;;;;;5047812;28;20041;-71
2023/07/06 04:04:35;;;;;;;31.40;7.93;;;;;;;;;;5030565;28;20025;-69
2023/07/06 04:07:02;;;;;;;17.70;6.75;;;;;;;;;;5046247;28;20079;-70
2023/07/06 04:09:28;;;;;;;25.35;8.32;;;;;;;;;;5048041;28;20087;-70
2023/07/06 04:11:55;;;;;;;26.27;8.77;;;;;;;;;;5051163;28;20036;-71
2023/07/06 04:14:25;;;;;;;27.40;8.23;;;;;;;;;;5052470;28;20476;-70
2023/07/06 04:16:56;;;;;;;25.73;8.57;;;;;;;;;;5050374;28;20049;-71
2023/07/06 04:19:23;;;;;;;33.65;8.05;;;;;;;;;;5040499;28;20033;-71
2023/07/06 04:21:49;;;;;;;34.03;8.77;;;;;;;;;;5016864;28;20037;-70
2023/07/06 04:24:16;;;;;;;27.27;9.02;;;;;;;;;;5052464;28;20029;-71
2023/07/06 04:26:45;;;;;;;22.98;8.35;;;;;;;;;;5049318;28;20055;-71
2023/07/06 04:29:11;;;;;;;30.63;9.13;;;;;;;;;;5039237;28;20029;-71
2023/07/06 04:31:38;;;;;;;21.10;7.97;;;;;;;;;;5047524;28;20108;-71
2023/07/06 04:34:04;;;;;;;22.58;9.98;;;;;;;;;;5049994;28;20108;-71
2023/07/06 04:36:33;;;;;;;38.55;9.95;;;;;;;;;;5043622;28;20109;-71
2023/07/06 04:39:00;;;;;;;30.85;8.82;;;;;;;;;;5049709;28;20458;-71
2023/07/06 04:41:27;;;;;;;36.78;10.30;;;;;;;;;;5049578;28;20047;-71
2023/07/06 04:43:53;;;;;;;26.45;9.88;;;;;;;;;;5050288;28;20055;-70
2023/07/06 04:46:22;;;;;;;32.00;9.20;;;;;;;;;;5048668;28;20119;-70
2023/07/06 04:48:49;;;;;;;25.33;9.02;;;;;;;;;;5035167;28;20048;-71
2023/07/06 04:51:17;;;;;;;31.65;8.85;;;;;;;;;;5037192;28;20033;-71
2023/07/06 04:53:43;;;;;;;24.73;8.20;;;;;;;;;;5051987;28;20067;-71
2023/07/06 04:56:09;;;;;;;32.88;9.73;;;;;;;;;;5049161;28;20096;-71
2023/07/06 04:58:37;;;;;;;28.05;9.55;;;;;;;;;;5048242;28;20028;-71
2023/07/06 05:01:05;;;;;;;32.30;9.63;;;;;;;;;;5048961;28;20017;-70
2023/07/06 05:03:31;;;;;;;26.08;8.95;;;;;;;;;;5047208;28;20057;-70
2023/07/06 05:06:01;;;;;;;35.22;11.45;;;;;;;;;;5049363;28;20049;-70
2023/07/06 05:08:27;;;;;;;32.05;10.48;;;;;;;;;;5041071;28;20151;-70
2023/07/06 05:10:53;;;;;;;31.92;9.50;;;;;;;;;;5047083;28;20037;-68
2023/07/06 05:13:20;;;;;;;33.53;9.07;;;;;;;;;;5048779;28;20041;-68
2023/07/06 05:15:48;;;;;;;39.08;10.05;;;;;;;;;;5039057;28;20036;-69
2023/07/06 05:18:15;;;;;;;25.63;9.73;;;;;;;;;;5049691;28;20057;-70
2023/07/06 05:20:41;;;;;;;29.30;9.52;;;;;;;;;;5050767;28;20024;-69
2023/07/06 05:23:08;;;;;;;27.58;10.52;;;;;;;;;;5051860;28;20048;-69
2023/07/06 05:25:36;;;;;;;36.67;10.30;;;;;;;;;;5049285;28;20037;-69
2023/07/06 05:28:02;;;;;;;37.97;10.70;;;;;;;;;;5032028;28;20033;-75
2023/07/06 05:30:29;;;;;;;33.53;9.68;;;;;;;;;;5047281;28;20047;-69
2023/07/06 05:32:55;;;;;;;27.02;8.65;;;;;;;;;;5029640;28;20037;-70
2023/07/06 05:35:23;;;;;;;30.85;8.60;;;;;;;;;;5047047;28;20021;-68
2023/07/06 05:37:51;;;;;;;28.08;10.25;;;;;;;;;;5049562;28;20021;-69
2023/07/06 05:40:17;;;;;;;30.40;9.68;;;;;;;;;;5051446;28;20036;-70
2023/07/06 05:42:43;;;;;;;30.45;9.88;;;;;;;;;;5015211;28;20048;-71
2023/07/06 05:45:09;;;;;;;28.33;9.63;;;;;;;;;;5016858;28;20389;-70
2023/07/06 05:47:36;;;;;;;27.77;8.48;;;;;;;;;;5047087;28;20098;-70
2023/07/06 05:50:02;;;;;;;30.05;9.25;;;;;;;;;;5046383;28;20040;-71
2023/07/06 05:52:28;;;;;;;30.02;9.95;;;;;;;;;;5044926;28;20075;-71
2023/07/06 05:54:54;;;;;;;26.30;9.60;;;;;;;;;;5045960;28;20071;-72
2023/07/06 05:57:20;;;;;;;31.70;10.13;;;;;;;;;;5048146;28;20028;-69
2023/07/06 05:59:48;;;;;;;35.90;11.50;;;;;;;;;;5045837;28;20052;-70
2023/07/06 06:02:18;;;;;;;29.48;11.48;;;;;;;;;;5043907;28;20383;-73
2023/07/06 06:04:45;;;;;;;34.92;11.93;;;;;;;;;;5047969;28;20124;-70
2023/07/06 06:07:12;;;;;;;29.30;11.55;;;;;;;;;;5047321;28;20037;-70
2023/07/06 06:09:39;;;;;;;40.67;11.82;;;;;;;;;;5046699;28;20123;-70
2023/07/06 06:12:05;;;;;;;37.15;12.57;;;;;;;;;;5030491;28;20448;-68
2023/07/06 06:14:32;;;;;;;29.50;12.43;;;;;;;;;;5046067;28;20033;-70
2023/07/06 06:16:59;;;;;;;34.10;14.75;;;;;;;;;;5047474;28;20335;-70
2023/07/06 06:19:26;;;;;;;32.83;11.95;;;;;;;;;;5036796;28;21418;-70
2023/07/06 06:21:53;;;;;;;29.38;13.43;;;;;;;;;;5042805;28;20059;-69
2023/07/06 06:24:21;;;;;;;35.63;13.82;;;;;;;;;;5043114;28;20074;-69
2023/07/06 06:26:47;;;;;;;28.90;14.13;;;;;;;;;;5030635;28;20060;-70
2023/07/06 06:29:13;;;;;;;33.80;15.88;;;;;;;;;;5045283;28;20132;-70
2023/07/06 06:31:42;;;;;;;41.15;16.83;;;;;;;;;;5029165;28;20092;-71
2023/07/06 06:34:10;;;;;;;44.03;18.08;;;;;;;;;;5034736;28;20087;-70
2023/07/06 06:36:36;;;;;;;33.63;17.38;;;;;;;;;;5024782;28;20029;-71
2023/07/06 06:39:02;;;;;;;39.60;17.67;;;;;;;;;;5048347;28;20044;-69
2023/07/06 06:41:28;;;;;;;36.45;16.60;;;;;;;;;;5048908;28;20036;-68
2023/07/06 06:43:56;;;;;;;34.20;18.45;;;;;;;;;;5047621;28;20033;-74
2023/07/06 06:46:23;;;;;;;39.65;17.85;;;;;;;;;;5017682;28;20094;-69
2023/07/06 06:48:49;;;;;;;34.80;17.90;;;;;;;;;;5020020;28;20037;-72
2023/07/06 06:51:16;;;;;;;34.28;16.98;;;;;;;;;;5040084;28;20026;-70
2023/07/06 06:53:43;;;;;;;38.00;16.80;;;;;;;;;;5042151;28;20041;-69
2023/07/06 06:56:09;;;;;;;33.28;16.90;;;;;;;;;;5031854;28;20154;-69
2023/07/06 06:58:35;;;;;;;32.80;15.60;;;;;;;;;;5036675;28;20486;-70
2023/07/06 07:01:03;;;;;;;30.00;15.38;;;;;;;;;;5018797;28;20033;-70
2023/07/06 07:03:30;;;;;;;29.38;15.80;;;;;;;;;;5035233;28;20095;-70
2023/07/06 07:06:00;;;;;;;27.33;15.18;;;;;;;;;;5032359;28;20040;-70
2023/07/06 07:08:27;;;;;;;26.17;14.65;;;;;;;;;;5037428;28;20029;-70
2023/07/06 07:10:54;;;;;;;27.27;15.05;;;;;;;;;;5040567;28;20082;-71
2023/07/06 07:13:20;;;;;;;29.02;13.63;;;;;;;;;;5034638;28;20041;-70
2023/07/06 07:15:46;;;;;;;27.85;13.88;;;;;;;;;;5031287;28;20101;-71
2023/07/06 07:18:12;;;;;;;22.25;13.05;;;;;;;;;;5036624;28;20098;-71
2023/07/06 07:20:38;;;;;;;27.70;13.93;;;;;;;;;;5011580;28;20040;-70
2023/07/06 07:23:05;;;;;;;30.10;14.25;;;;;;;;;;5035450;28;20041;-70
2023/07/06 07:25:31;;;;;;;31.15;13.80;;;;;;;;;;5018271;28;20041;-70
2023/07/06 07:27:57;;;;;;;25.10;13.98;;;;;;;;;;5018555;28;20048;-70
2023/07/06 07:30:26;;;;;;;27.00;12.75;;;;;;;;;;5035525;28;20065;-69
2023/07/06 07:32:52;;;;;;;22.30;11.20;;;;;;;;;;5019282;28;20048;-69
2023/07/06 07:35:18;;;;;;;25.92;10.90;;;;;;;;;;5033526;28;20033;-69
2023/07/06 07:37:50;;;;;;;25.67;10.23;;;;;;;;;;5033284;28;20045;-69
2023/07/06 07:40:19;;;;;;;21.85;10.80;;;;;;;;;;5028040;28;20061;-69
2023/07/06 07:42:46;;;;;;;24.63;10.60;;;;;;;;;;5038199;28;20144;-69
2023/07/06 07:45:13;;;;;;;22.50;10.77;;;;;;;;;;5021319;28;20053;-69
2023/07/06 07:47:40;;;;;;;21.98;11.05;;;;;;;;;;5042273;28;20040;-70
2023/07/06 07:50:07;;;;;;;22.23;9.93;;;;;;;;;;5039872;28;20042;-70
2023/07/06 07:52:34;;;;;;;22.48;9.93;;;;;;;;;;5041415;28;20098;-70
2023/07/06 07:55:00;;;;;;;19.30;10.00;;;;;;;;;;5041406;28;20024;-70
2023/07/06 07:57:30;;;;;;;21.08;9.90;;;;;;;;;;5043100;28;20090;-69
2023/07/06 07:59:56;;;;;;;25.10;10.13;;;;;;;;;;5028127;28;20033;-69
2023/07/06 08:02:23;;;;;;;24.17;10.05;;;;;;;;;;5041056;28;20144;-68
2023/07/06 08:04:49;;;;;;;17.63;8.43;;;;;;;;;;5042635;28;20037;-70
2023/07/06 08:07:15;;;;;;;20.60;8.63;;;;;;;;;;5042846;28;20044;-70
2023/07/06 08:09:42;;;;;;;19.58;8.73;;;;;;;;;;5042021;28;20133;-69
2023/07/06 08:12:08;;;;;;;19.92;9.65;;;;;;;;;;5018409;28;20048;-70
2023/07/06 08:14:36;;;;;;;22.08;10.85;;;;;;;;;;5035897;28;20040;-69
2023/07/06 08:17:04;;;;;;;20.50;10.90;;;;;;;;;;5018118;28;20025;-71
2023/07/06 08:19:32;;;;;;;25.38;11.15;;;;;;;;;;5037543;28;20059;-69
2023/07/06 08:22:03;;;;;;;18.83;9.65;;;;;;;;;;5036417;28;20048;-70
2023/07/06 08:24:37;;;;;;;25.00;10.10;;;;;;;;;;5033467;28;20048;-70
2023/07/06 08:27:05;;;;;;;17.00;8.30;;;;;;;;;;5038888;28;20083;-71
2023/07/06 08:29:32;;;;;;;21.73;9.40;;;;;;;;;;5043585;28;20030;-86
2023/07/06 08:32:00;;;;;;;17.92;8.65;;;;;;;;;;5061980;28;20098;-70
2023/07/06 08:34:26;;;;;;;20.30;10.50;;;;;;;;;;5044741;28;20041;-75
2023/07/06 08:36:53;;;;;;;21.02;8.73;;;;;;;;;;5045124;28;20044;-69
2023/07/06 08:39:19;;;;;;;17.75;7.55;;;;;;;;;;5023345;28;20045;-71
2023/07/06 08:41:47;;;;;;;31.15;7.97;;;;;;;;;;5043423;28;20401;-79
2023/07/06 08:44:14;;;;;;;16.83;7.18;;;;;;;;;;5026467;28;20106;-73
2023/07/06 08:46:54;;;;;;;19.23;7.80;;;;;;;;;;5040005;28;20886;-72
2023/07/06 08:49:20;;;;;;;13.40;6.43;;;;;;;;;;5039687;28;20056;-75
2023/07/06 08:51:48;;;;;;;18.17;6.65;;;;;;;;;;5036858;28;20361;-70
2023/07/06 08:54:25;;;;;;;23.02;6.90;;;;;;;;;;5026687;28;20031;-70
2023/07/06 08:56:51;;;;;;;20.33;6.43;;;;;;;;;;5020247;28;20055;-70
2023/07/06 08:59:37;;;;;;;15.50;6.03;;;;;;;;;;5019163;28;20060;-80
2023/07/06 09:02:16;;;;;;;13.27;5.97;;;;;;;;;;5039802;28;20080;-77
2023/07/06 09:04:43;;;;;;;11.82;5.22;;;;;;;;;;5037397;28;20033;-82
2023/07/06 09:07:13;;;;;;;11.65;5.50;;;;;;;;;;5021326;28;20092;-74
2023/07/06 09:09:43;;;;;;;17.40;5.85;;;;;;;;;;5036805;28;20420;-77
2023/07/06 09:12:13;;;;;;;16.52;5.60;;;;;;;;;;5040600;28;20045;-77
2023/07/06 09:14:43;;;;;;;15.18;4.93;;;;;;;;;;5039540;28;20021;-71
2023/07/06 09:17:16;;;;;;;16.77;4.80;;;;;;;;;;5018311;28;20056;-72
2023/07/06 09:19:43;;;;;;;13.75;5.10;;;;;;;;;;5040668;28;20048;-69
2023/07/06 09:22:10;;;;;;;12.77;4.65;;;;;;;;;;5037080;28;20131;-70
2023/07/06 09:24:37;;;;;;;9.50;4.30;;;;;;;;;;5033008;28;20075;-71
2023/07/06 09:27:10;;;;;;;9.38;3.97;;;;;;;;;;5040740;28;20047;-72
2023/07/06 09:29:37;;;;;;;12.35;4.25;;;;;;;;;;5023975;28;20036;-70
2023/07/06 09:32:13;;;;;;;18.63;5.38;;;;;;;;;;5036602;28;20235;-71
2023/07/06 09:34:44;;;;;;;10.07;4.43;;;;;;;;;;5036812;28;20112;-70
2023/07/06 09:37:20;;;;;;;11.10;4.95;;;;;;;;;;5019867;28;20025;-70
2023/07/06 09:40:00;;;;;;;10.88;4.60;;;;;;;;;;5037562;28;20057;-70
2023/07/06 09:42:28;;;;;;;;;;;;;;;;;;5035667;28;20037;-70
2023/07/06 09:44:54;;;;;;;11.88;4.05;;;;;;;;;;5023072;28;19955;-69
2023/07/06 09:47:20;;;;;;;11.40;4.55;;;;;;;;;;5035701;28;20152;-69
2023/07/06 09:49:54;;;;;;;16.25;4.03;;;;;;;;;;5012347;28;20045;-71
2023/07/06 09:52:21;;;;;;;9.27;3.65;;;;;;;;;;5034469;28;20037;-71
2023/07/06 09:54:47;;;;;;;16.00;3.70;;;;;;;;;;5042449;28;20104;-73
2023/07/06 09:57:18;;;;;;;14.30;4.40;;;;;;;;;;5036815;28;20037;-69
2023/07/06 09:59:46;;;;;;;13.10;4.93;;;;;;;;;;5039291;28;20028;-71
2023/07/06 10:02:24;;;;;;;13.05;4.30;;;;;;;;;;5040345;28;20079;-69
2023/07/06 10:04:56;;;;;;;15.05;4.30;;;;;;;;;;5041451;28;20115;-70
2023/07/06 10:07:25;;;;;;;12.05;5.40;;;;;;;;;;5036445;28;20055;-71
2023/07/06 10:10:14;;;;;;;9.73;5.30;;;;;;;;;;5039856;28;20086;-71
2023/07/06 10:12:46;;;;;;;19.67;5.75;;;;;;;;;;5038530;28;20044;-71
2023/07/06 10:15:21;;;;;;;16.00;5.38;;;;;;;;;;5035828;28;20099;-70
2023/07/06 10:17:51;;;;;;;14.60;5.32;;;;;;;;;;5032714;28;20018;-70
2023/07/06 10:20:22;;;;;;;14.85;5.22;;;;;;;;;;5037740;28;20044;-72
2023/07/06 10:22:59;;;;;;;19.58;5.68;;;;;;;;;;5035612;28;20037;-71
2023/07/06 10:25:46;;;;;;;14.77;5.05;;;;;;;;;;5038839;28;20041;-71
2023/07/06 10:28:18;;;;;;;13.93;5.55;;;;;;;;;;5034388;28;20385;-72
2023/07/06 10:30:47;;;;;;;12.88;4.50;;;;;;;;;;5039525;28;20052;-68
2023/07/06 10:33:18;;;;;;;18.40;4.15;;;;;;;;;;5019493;28;21028;-72
2023/07/06 10:35:46;;;;;;;14.55;3.67;;;;;;;;;;5035894;28;20402;-71
2023/07/06 10:38:13;;;;;;;11.57;3.72;;;;;;;;;;5040072;28;20104;-71
2023/07/06 10:40:39;;;;;;;10.43;3.33;;;;;;;;;;5040124;28;20028;-71
2023/07/06 10:43:14;;;;;;;17.05;3.97;;;;;;;;;;5035150;28;20079;-71
2023/07/06 10:45:42;;;;;;;13.25;3.17;;;;;;;;;;5039960;28;20033;-71
2023/07/06 10:48:13;;;;;;;10.60;3.40;;;;;;;;;;5000905;28;20409;-70
2023/07/06 10:50:58;;;;;;;8.52;3.40;;;;;;;;;;5037082;28;20028;-70
2023/07/06 10:53:34;;;;;;;13.32;3.30;;;;;;;;;;5020433;28;20037;-70
2023/07/06 10:56:03;;;;;;;9.68;2.90;;;;;;;;;;5039709;28;20029;-71
2023/07/06 10:58:48;;;;;;;8.20;3.00;;;;;;;;;;5037793;28;20025;-70
2023/07/06 11:01:16;;;;;;;7.30;2.90;;;;;;;;;;5035254;28;20478;-69
2023/07/06 11:03:43;;;;;;;11.15;2.95;;;;;;;;;;5041123;28;20047;-70
2023/07/06 11:06:29;;;;;;;16.48;2.97;;;;;;;;;;5046587;28;20106;-69
2023/07/06 11:09:10;;;;;;;11.07;3.10;;;;;;;;;;5039836;28;20071;-70
2023/07/06 11:11:49;;;;;;;7.10;2.60;;;;;;;;;;5040447;28;20120;-69
2023/07/06 11:14:20;;;;;;;12.68;2.60;;;;;;;;;;5017583;28;20025;-70
2023/07/06 11:16:57;;;;;;;7.95;2.22;;;;;;;;;;5035188;28;20903;-70
2023/07/06 11:19:26;;;;;;;9.18;2.13;;;;;;;;;;5041781;28;20043;-71
2023/07/06 11:21:53;;;;;;;11.20;2.42;;;;;;;;;;5040316;28;20033;-72
2023/07/06 11:24:22;;;;;;;7.38;2.45;;;;;;;;;;5034795;28;20107;-70
2023/07/06 11:26:53;;;;;;;12.65;3.05;;;;;;;;;;5038244;28;20034;-71
2023/07/06 11:29:20;;;;;;;11.48;2.42;;;;;;;;;;5040473;28;20084;-71
2023/07/06 11:31:49;;;;;;;8.18;2.15;;;;;;;;;;5041777;28;20054;-71
2023/07/06 11:34:30;;;;;;;9.02;2.00;;;;;;;;;;5039870;28;20083;-68
2023/07/06 11:36:56;;;;;;;8.63;2.20;;;;;;;;;;5016226;28;20021;-69
2023/07/06 11:39:26;;;;;;;7.53;2.13;;;;;;;;;;5038576;28;20062;-70
2023/07/06 11:41:59;;;;;;;6.97;1.97;;;;;;;;;;5038826;28;20060;-70
2023/07/06 11:44:46;;;;;;;6.63;2.28;;;;;;;;;;5040349;28;20432;-70
2023/07/06 11:47:16;;;;;;;12.32;2.13;;;;;;;;;;5037541;28;20061;-69
2023/07/06 11:49:45;;;;;;;8.43;2.00;;;;;;;;;;5035657;28;20124;-69
2023/07/06 11:52:14;;;;;;;4.35;1.83;;;;;;;;;;4994027;28;20481;-70
2023/07/06 11:54:49;;;;;;;5.05;1.67;;;;;;;;;;5038031;28;20436;-71
2023/07/06 11:57:24;;;;;;;5.55;1.40;;;;;;;;;;5038288;28;20435;-70
2023/07/06 12:00:14;;;;;;;5.43;1.17;;;;;;;;;;5036025;28;20082;-69
2023/07/06 12:02:49;;;;;;;4.30;1.40;;;;;;;;;;5033075;28;20157;-71
2023/07/06 12:05:25;;;;;;;5.45;1.23;;;;;;;;;;5035395;28;20059;-70
2023/07/06 12:08:01;;;;;;;5.38;1.60;;;;;;;;;;5037494;28;20171;-70
2023/07/06 12:10:33;;;;;;;3.10;1.48;;;;;;;;;;5036183;28;20037;-70
2023/07/06 12:12:59;;;;;;;7.57;1.40;;;;;;;;;;5031304;28;20064;-71
2023/07/06 12:15:25;;;;;;;6.38;1.65;;;;;;;;;;5033547;28;20036;-71
2023/07/06 12:18:01;;;;;;;3.85;1.30;;;;;;;;;;5033762;28;20036;-70
2023/07/06 12:20:29;;;;;;;4.25;1.30;;;;;;;;;;5040793;28;20546;-71
2023/07/06 12:23:01;;;;;;;7.10;1.70;;;;;;;;;;5032300;28;20057;-71
2023/07/06 12:25:27;;;;;;;6.70;1.58;;;;;;;;;;5029681;28;20025;-71
2023/07/06 12:28:01;;;;;;;3.83;1.30;;;;;;;;;;5031345;28;20049;-72
2023/07/06 12:30:33;;;;;;;4.43;1.60;;;;;;;;;;5042238;28;20599;-70
2023/07/06 12:33:00;;;;;;;4.97;1.30;;;;;;;;;;5039811;28;20044;-71
2023/07/06 12:35:27;;;;;;;4.18;1.45;;;;;;;;;;5039596;28;20037;-70
2023/07/06 12:37:56;;;;;;;4.95;1.65;;;;;;;;;;5025699;28;20037;-71
2023/07/06 12:40:25;;;;;;;3.67;1.58;;;;;;;;;;5037831;28;20053;-71
2023/07/06 12:42:55;;;;;;;5.38;1.30;;;;;;;;;;5040291;28;20093;-71
2023/07/06 12:45:23;;;;;;;4.03;1.52;;;;;;;;;;5039343;28;20032;-71
2023/07/06 12:47:57;;;;;;;6.15;1.40;;;;;;;;;;5038546;28;20032;-71
2023/07/06 12:50:28;;;;;;;4.60;1.20;;;;;;;;;;5042698;28;20045;-71
2023/07/06 12:53:05;;;;;;;4.15;1.80;;;;;;;;;;5044698;28;20036;-70
2023/07/06 12:55:32;;;;;;;10.85;1.75;;;;;;;;;;5032325;28;20072;-71
2023/07/06 12:58:13;;;;;;;5.30;1.38;;;;;;;;;;5044718;28;20029;-72
2023/07/06 13:00:39;;;;;;;5.55;1.50;;;;;;;;;;5042850;28;20584;-70
2023/07/06 13:03:10;;;;;;;8.63;1.50;;;;;;;;;;5033821;28;20057;-70
2023/07/06 13:05:36;;;;;;;3.25;1.58;;;;;;;;;;5041927;28;20069;-71
2023/07/06 13:08:08;;;;;;;3.97;1.58;;;;;;;;;;5034785;28;20045;-70
2023/07/06 13:10:38;;;;;;;7.53;1.48;;;;;;;;;;5041874;28;20108;-71
2023/07/06 13:13:19;;;;;;;2.58;1.50;;;;;;;;;;5037417;28;20091;-72
2023/07/06 13:15:46;;;;;;;;;;;;;;;;;;5023181;28;20035;-71
2023/07/06 13:18:17;;;;;;;3.20;1.40;;;;;;;;;;5035151;28;19919;-69
2023/07/06 13:20:44;;;;;;;3.85;1.30;;;;;;;;;;5029436;28;20112;-71
2023/07/06 13:23:12;;;;;;;3.80;1.33;;;;;;;;;;5041527;28;20056;-70
2023/07/06 13:25:44;;;;;;;5.00;1.30;;;;;;;;;;5036768;28;20036;-70
2023/07/06 13:28:11;;;;;;;4.65;1.40;;;;;;;;;;5038079;28;20029;-71
2023/07/06 13:30:40;;;;;;;3.90;1.50;;;;;;;;;;5022679;28;20530;-70
2023/07/06 13:33:07;;;;;;;7.95;2.13;;;;;;;;;;5035411;28;20373;-70
2023/07/06 13:35:33;;;;;;;3.72;1.48;;;;;;;;;;5038424;28;20071;-71
2023/07/06 13:38:03;;;;;;;4.97;1.65;;;;;;;;;;5014392;28;20022;-70
2023/07/06 13:40:30;;;;;;;6.70;1.30;;;;;;;;;;5037649;28;20043;-70
2023/07/06 13:42:59;;;;;;;6.65;1.38;;;;;;;;;;5033806;28;20079;-70
2023/07/06 13:45:47;;;;;;;3.13;1.65;;;;;;;;;;5033376;28;20044;-70
2023/07/06 13:48:14;;;;;;;7.10;1.50;;;;;;;;;;5035690;28;20037;-70
2023/07/06 13:50:44;;;;;;;4.50;1.85;;;;;;;;;;5024038;28;20048;-70
2023/07/06 13:53:12;;;;;;;3.88;1.70;;;;;;;;;;5038876;28;20083;-72
2023/07/06 13:55:49;;;;;;;4.25;1.52;;;;;;;;;;5022076;28;20107;-70
2023/07/06 13:58:16;;;;;;;5.45;1.77;;;;;;;;;;5042049;28;20367;-70
2023/07/06 14:00:42;;;;;;;3.70;1.90;;;;;;;;;;5031734;28;20052;-71
2023/07/06 14:03:12;;;;;;;3.90;1.60;;;;;;;;;;5037056;28;20048;-70
2023/07/06 14:05:38;;;;;;;4.53;1.88;;;;;;;;;;5036505;28;20562;-70
2023/07/06 14:08:05;;;;;;;2.65;1.50;;;;;;;;;;5037167;28;20050;-71
2023/07/06 14:10:32;;;;;;;3.95;1.70;;;;;;;;;;5038774;28;20060;-70
2023/07/06 14:12:59;;;;;;;2.60;1.52;;;;;;;;;;5040188;28;20037;-70
2023/07/06 14:15:25;;;;;;;5.15;1.50;;;;;;;;;;5041505;28;20036;-70
2023/07/06 14:17:51;;;;;;;4.80;1.95;;;;;;;;;;5036849;28;20126;-70
2023/07/06 14:20:18;;;;;;;5.25;1.88;;;;;;;;;;5035000;28;20021;-69
2023/07/06 14:22:46;;;;;;;4.78;1.50;;;;;;;;;;5042062;28;20036;-70
2023/07/06 14:25:22;;;;;;;4.75;1.70;;;;;;;;;;5022452;28;20045;-70
2023/07/06 14:27:49;;;;;;;3.70;1.83;;;;;;;;;;5042590;28;20060;-70
2023/07/06 14:30:17;;;;;;;4.55;1.65;;;;;;;;;;5039206;28;20021;-70
2023/07/06 14:32:45;;;;;;;4.30;1.75;;;;;;;;;;5018386;28;20048;-70
2023/07/06 14:35:12;;;;;;;7.45;2.92;;;;;;;;;;5031895;28;20108;-70
2023/07/06 14:37:39;;;;;;;5.78;2.20;;;;;;;;;;5032770;28;20065;-70
2023/07/06 14:40:07;;;;;;;8.07;2.47;;;;;;;;;;5037432;28;20029;-69
2023/07/06 14:42:34;;;;;;;5.53;2.10;;;;;;;;;;5041297;28;20415;-69